METAR Data
IDs: Format: Raw Decoded Include TAF

Data at: 0150 UTC 24 May 2019

METAR for:KHSE (Hatteras/Mitchell Fl, NC, US)
Text:KHSE 240051Z AUTO 22011KT 10SM CLR 24/19 A3012 RMK AO2 SLP199 T02390194
Temperature: 23.9°C ( 75°F)
Dewpoint: 19.4°C ( 67°F) [RH = 76%]
Pressure (altimeter):30.12 inches Hg (1020.1 mb) [Sea level pressure: 1019.9 mb]
Winds:from the SW (220 degrees) at 13 MPH (11 knots; 5.7 m/s)
Visibility:10 or more sm (16+ km)
Ceiling:at least 12,000 feet AGL
Clouds:sky clear below 12,000 feet AGL
QC Flag:automated observation with no human augmentation
Text:KHSE 232351Z AUTO 22013G17KT 10SM CLR 24/19 A3013 RMK AO2 SLP201 T02390194 10267 20239 58014
Temperature: 23.9°C ( 75°F)
Dewpoint: 19.4°C ( 67°F) [RH = 76%]
Pressure (altimeter):30.13 inches Hg (1020.4 mb) [Sea level pressure: 1020.1 mb]
Winds:from the SW (220 degrees) at 15 MPH (13 knots; 6.7 m/s) gusting to 20 MPH (17 knots; 8.7 m/s)
Visibility:10 or more sm (16+ km)
Ceiling:at least 12,000 feet AGL
Clouds:sky clear below 12,000 feet AGL
QC Flag:automated observation with no human augmentation
Text:KHSE 232251Z AUTO 21010KT 10SM CLR 24/19 A3015 RMK AO2 SLP207 T02440194
Temperature: 24.4°C ( 76°F)
Dewpoint: 19.4°C ( 67°F) [RH = 74%]
Pressure (altimeter):30.15 inches Hg (1021.1 mb) [Sea level pressure: 1020.7 mb]
Winds:from the SSW (210 degrees) at 12 MPH (10 knots; 5.1 m/s)
Visibility:10 or more sm (16+ km)
Ceiling:at least 12,000 feet AGL
Clouds:sky clear below 12,000 feet AGL
QC Flag:automated observation with no human augmentation
Text:KHSE 232151Z AUTO 21009KT 10SM CLR 25/19 A3015 RMK AO2 SLP210 T02500189
Temperature: 25.0°C ( 77°F)
Dewpoint: 18.9°C ( 66°F) [RH = 69%]
Pressure (altimeter):30.15 inches Hg (1021.1 mb) [Sea level pressure: 1021.0 mb]
Winds:from the SSW (210 degrees) at 10 MPH (9 knots; 4.6 m/s)
Visibility:10 or more sm (16+ km)
Ceiling:at least 12,000 feet AGL
Clouds:sky clear below 12,000 feet AGL
QC Flag:automated observation with no human augmentation
Text:KHSE 232051Z AUTO 21011KT 10SM CLR 26/18 A3017 RMK AO2 SLP216 T02610183 56026
Temperature: 26.1°C ( 79°F)
Dewpoint: 18.3°C ( 65°F) [RH = 62%]
Pressure (altimeter):30.17 inches Hg (1021.8 mb) [Sea level pressure: 1021.6 mb]
Winds:from the SSW (210 degrees) at 13 MPH (11 knots; 5.7 m/s)
Visibility:10 or more sm (16+ km)
Ceiling:at least 12,000 feet AGL
Clouds:sky clear below 12,000 feet AGL
QC Flag:automated observation with no human augmentation
Text:KHSE 231951Z AUTO 20009KT 10SM FEW065 26/18 A3020 RMK AO2 SLP225 T02610183
Temperature: 26.1°C ( 79°F)
Dewpoint: 18.3°C ( 65°F) [RH = 62%]
Pressure (altimeter):30.20 inches Hg (1022.8 mb) [Sea level pressure: 1022.5 mb]
Winds:from the SSW (200 degrees) at 10 MPH (9 knots; 4.6 m/s)
Visibility:10 or more sm (16+ km)
Ceiling:at least 12,000 feet AGL
Clouds: few clouds at 6500 feet AGL
QC Flag:automated observation with no human augmentation
Text:KHSE 231851Z AUTO 22008KT 10SM OVC065 26/18 A3022 RMK AO2 SLP231 T02560178
Temperature: 25.6°C ( 78°F)
Dewpoint: 17.8°C ( 64°F) [RH = 62%]
Pressure (altimeter):30.22 inches Hg (1023.5 mb) [Sea level pressure: 1023.1 mb]
Winds:from the SW (220 degrees) at 9 MPH (8 knots; 4.1 m/s)
Visibility:10 or more sm (16+ km)
Ceiling:6500 feet AGL
Clouds: overcast cloud deck at 6500 feet AGL
QC Flag:automated observation with no human augmentation
Text:KHSE 231751Z AUTO 21007KT 10SM OVC060 26/18 A3025 RMK AO2 SLP242 T02560178 10267 20233 58015
Temperature: 25.6°C ( 78°F)
Dewpoint: 17.8°C ( 64°F) [RH = 62%]
Pressure (altimeter):30.25 inches Hg (1024.5 mb) [Sea level pressure: 1024.2 mb]
Winds:from the SSW (210 degrees) at 8 MPH (7 knots; 3.6 m/s)
Visibility:10 or more sm (16+ km)
Ceiling:6000 feet AGL
Clouds: overcast cloud deck at 6000 feet AGL
QC Flag:automated observation with no human augmentation
Text:KHSE 231651Z AUTO 21007KT 10SM BKN055 26/17 A3028 RMK AO2 SLP253 T02560172
Temperature: 25.6°C ( 78°F)
Dewpoint: 17.2°C ( 63°F) [RH = 60%]
Pressure (altimeter):30.28 inches Hg (1025.5 mb) [Sea level pressure: 1025.3 mb]
Winds:from the SSW (210 degrees) at 8 MPH (7 knots; 3.6 m/s)
Visibility:10 or more sm (16+ km)
Ceiling:5500 feet AGL
Clouds: broken clouds at 5500 feet AGL
QC Flag:automated observation with no human augmentation
Text:KHSE 231551Z AUTO VRB04KT 10SM CLR 27/17 A3029 RMK AO2 SLP256 T02670167
Temperature: 26.7°C ( 80°F)
Dewpoint: 16.7°C ( 62°F) [RH = 54%]
Pressure (altimeter):30.29 inches Hg (1025.8 mb) [Sea level pressure: 1025.6 mb]
Winds:variable direction winds at 5 MPH (4 knots; 2.1 m/s)
Visibility:10 or more sm (16+ km)
Ceiling:at least 12,000 feet AGL
Clouds:sky clear below 12,000 feet AGL
QC Flag:automated observation with no human augmentation
Text:KHSE 231451Z AUTO 18005KT 10SM CLR 26/16 A3029 RMK AO2 SLP257 T02560161 51003
Temperature: 25.6°C ( 78°F)
Dewpoint: 16.1°C ( 61°F) [RH = 56%]
Pressure (altimeter):30.29 inches Hg (1025.8 mb) [Sea level pressure: 1025.7 mb]
Winds:from the S (180 degrees) at 6 MPH (5 knots; 2.6 m/s)
Visibility:10 or more sm (16+ km)
Ceiling:at least 12,000 feet AGL
Clouds:sky clear below 12,000 feet AGL
QC Flag:automated observation with no human augmentation
Text:KHSE 231351Z AUTO VRB03KT 10SM CLR 24/16 A3029 RMK AO2 SLP257 T02440156
Temperature: 24.4°C ( 76°F)
Dewpoint: 15.6°C ( 60°F) [RH = 58%]
Pressure (altimeter):30.29 inches Hg (1025.8 mb) [Sea level pressure: 1025.7 mb]
Winds:variable direction winds at 3 MPH (3 knots; 1.5 m/s)
Visibility:10 or more sm (16+ km)
Ceiling:at least 12,000 feet AGL
Clouds:sky clear below 12,000 feet AGL
QC Flag:automated observation with no human augmentation
Text:KHSE 231251Z AUTO VRB03KT 10SM CLR 24/14 A3028 RMK AO2 SLP254 T02390139
Temperature: 23.9°C ( 75°F)
Dewpoint: 13.9°C ( 57°F) [RH = 54%]
Pressure (altimeter):30.28 inches Hg (1025.5 mb) [Sea level pressure: 1025.4 mb]
Winds:variable direction winds at 3 MPH (3 knots; 1.5 m/s)
Visibility:10 or more sm (16+ km)
Ceiling:at least 12,000 feet AGL
Clouds:sky clear below 12,000 feet AGL
QC Flag:automated observation with no human augmentation
Text:KHSE 231151Z AUTO 13003KT 10SM CLR 23/16 A3028 RMK AO2 SLP253 T02330156 10233 20178 51014
Temperature: 23.3°C ( 74°F)
Dewpoint: 15.6°C ( 60°F) [RH = 62%]
Pressure (altimeter):30.28 inches Hg (1025.5 mb) [Sea level pressure: 1025.3 mb]
Winds:from the SE (130 degrees) at 3 MPH (3 knots; 1.5 m/s)
Visibility:10 or more sm (16+ km)
Ceiling:at least 12,000 feet AGL
Clouds:sky clear below 12,000 feet AGL
QC Flag:automated observation with no human augmentation
Text:KHSE 231051Z AUTO 07003KT 10SM BKN050 19/17 A3028 RMK AO2 SLP252 T01940172
Temperature: 19.4°C ( 67°F)
Dewpoint: 17.2°C ( 63°F) [RH = 87%]
Pressure (altimeter):30.28 inches Hg (1025.5 mb) [Sea level pressure: 1025.2 mb]
Winds:from the ENE (70 degrees) at 3 MPH (3 knots; 1.5 m/s)
Visibility:10 or more sm (16+ km)
Ceiling:5000 feet AGL
Clouds: broken clouds at 5000 feet AGL
QC Flag:automated observation with no human augmentation
Text:KHSE 230951Z AUTO 06004KT 10SM FEW050 18/16 A3025 RMK AO2 SLP243 T01780161
Temperature: 17.8°C ( 64°F)
Dewpoint: 16.1°C ( 61°F) [RH = 90%]
Pressure (altimeter):30.25 inches Hg (1024.5 mb) [Sea level pressure: 1024.3 mb]
Winds:from the ENE (60 degrees) at 5 MPH (4 knots; 2.1 m/s)
Visibility:10 or more sm (16+ km)
Ceiling:at least 12,000 feet AGL
Clouds: few clouds at 5000 feet AGL
QC Flag:automated observation with no human augmentation
Text:KHSE 230851Z AUTO 08004KT 10SM CLR 18/16 A3024 RMK AO2 SLP240 T01780161 56008
Temperature: 17.8°C ( 64°F)
Dewpoint: 16.1°C ( 61°F) [RH = 90%]
Pressure (altimeter):30.24 inches Hg (1024.1 mb) [Sea level pressure: 1024.0 mb]
Winds:from the E (80 degrees) at 5 MPH (4 knots; 2.1 m/s)
Visibility:10 or more sm (16+ km)
Ceiling:at least 12,000 feet AGL
Clouds:sky clear below 12,000 feet AGL
QC Flag:automated observation with no human augmentation
Text:KHSE 230751Z AUTO 07005KT 10SM CLR 18/16 A3024 RMK AO2 SLP240 T01830156
Temperature: 18.3°C ( 65°F)
Dewpoint: 15.6°C ( 60°F) [RH = 84%]
Pressure (altimeter):30.24 inches Hg (1024.1 mb) [Sea level pressure: 1024.0 mb]
Winds:from the ENE (70 degrees) at 6 MPH (5 knots; 2.6 m/s)
Visibility:10 or more sm (16+ km)
Ceiling:at least 12,000 feet AGL
Clouds:sky clear below 12,000 feet AGL
QC Flag:automated observation with no human augmentation
Text:KHSE 230651Z AUTO 07005KT 10SM CLR 18/15 A3026 RMK AO2 SLP245 T01830150
Temperature: 18.3°C ( 65°F)
Dewpoint: 15.0°C ( 59°F) [RH = 81%]
Pressure (altimeter):30.26 inches Hg (1024.8 mb) [Sea level pressure: 1024.5 mb]
Winds:from the ENE (70 degrees) at 6 MPH (5 knots; 2.6 m/s)
Visibility:10 or more sm (16+ km)
Ceiling:at least 12,000 feet AGL
Clouds:sky clear below 12,000 feet AGL
QC Flag:automated observation with no human augmentation
Text:KHSE 230551Z AUTO 07005KT 10SM CLR 18/14 A3026 RMK AO2 SLP247 T01780144 10200 20172 58007
Temperature: 17.8°C ( 64°F)
Dewpoint: 14.4°C ( 58°F) [RH = 80%]
Pressure (altimeter):30.26 inches Hg (1024.8 mb) [Sea level pressure: 1024.7 mb]
Winds:from the ENE (70 degrees) at 6 MPH (5 knots; 2.6 m/s)
Visibility:10 or more sm (16+ km)
Ceiling:at least 12,000 feet AGL
Clouds:sky clear below 12,000 feet AGL
QC Flag:automated observation with no human augmentation
Text:KHSE 230451Z AUTO 06005KT 10SM CLR 18/14 A3027 RMK AO2 SLP250 T01830144 402500172
Temperature: 18.3°C ( 65°F)
Dewpoint: 14.4°C ( 58°F) [RH = 78%]
Pressure (altimeter):30.27 inches Hg (1025.1 mb) [Sea level pressure: 1025.0 mb]
Winds:from the ENE (60 degrees) at 6 MPH (5 knots; 2.6 m/s)
Visibility:10 or more sm (16+ km)
Ceiling:at least 12,000 feet AGL
Clouds:sky clear below 12,000 feet AGL
QC Flag:automated observation with no human augmentation
Text:KHSE 230351Z AUTO 06005KT 10SM CLR 18/14 A3028 RMK AO2 SLP252 T01830139
Temperature: 18.3°C ( 65°F)
Dewpoint: 13.9°C ( 57°F) [RH = 76%]
Pressure (altimeter):30.28 inches Hg (1025.5 mb) [Sea level pressure: 1025.2 mb]
Winds:from the ENE (60 degrees) at 6 MPH (5 knots; 2.6 m/s)
Visibility:10 or more sm (16+ km)
Ceiling:at least 12,000 feet AGL
Clouds:sky clear below 12,000 feet AGL
QC Flag:automated observation with no human augmentation
Text:KHSE 230251Z AUTO 07003KT 10SM CLR 18/13 A3028 RMK AO2 SLP255 T01780133 53010
Temperature: 17.8°C ( 64°F)
Dewpoint: 13.3°C ( 56°F) [RH = 75%]
Pressure (altimeter):30.28 inches Hg (1025.5 mb) [Sea level pressure: 1025.5 mb]
Winds:from the ENE (70 degrees) at 3 MPH (3 knots; 1.5 m/s)
Visibility:10 or more sm (16+ km)
Ceiling:at least 12,000 feet AGL
Clouds:sky clear below 12,000 feet AGL
QC Flag:automated observation with no human augmentation
Text:KHSE 230151Z AUTO 05005KT 10SM CLR 18/13 A3027 RMK AO2 SLP250 T01830133
Temperature: 18.3°C ( 65°F)
Dewpoint: 13.3°C ( 56°F) [RH = 73%]
Pressure (altimeter):30.27 inches Hg (1025.1 mb) [Sea level pressure: 1025.0 mb]
Winds:from the NE (50 degrees) at 6 MPH (5 knots; 2.6 m/s)
Visibility:10 or more sm (16+ km)
Ceiling:at least 12,000 feet AGL
Clouds:sky clear below 12,000 feet AGL
QC Flag:automated observation with no human augmentation
Text:KHSE 230051Z AUTO 08003KT 10SM CLR 19/12 A3027 RMK AO2 SLP249 T01890122
Temperature: 18.9°C ( 66°F)
Dewpoint: 12.2°C ( 54°F) [RH = 65%]
Pressure (altimeter):30.27 inches Hg (1025.1 mb) [Sea level pressure: 1024.9 mb]
Winds:from the E (80 degrees) at 3 MPH (3 knots; 1.5 m/s)
Visibility:10 or more sm (16+ km)
Ceiling:at least 12,000 feet AGL
Clouds:sky clear below 12,000 feet AGL
QC Flag:automated observation with no human augmentation
Text:KHSE 222351Z AUTO 05003KT 10SM CLR 20/11 A3026 RMK AO2 SLP245 T02000106 10250 20200 51004
Temperature: 20.0°C ( 68°F)
Dewpoint: 10.6°C ( 51°F) [RH = 55%]
Pressure (altimeter):30.26 inches Hg (1024.8 mb) [Sea level pressure: 1024.5 mb]
Winds:from the NE (50 degrees) at 3 MPH (3 knots; 1.5 m/s)
Visibility:10 or more sm (16+ km)
Ceiling:at least 12,000 feet AGL
Clouds:sky clear below 12,000 feet AGL
QC Flag:automated observation with no human augmentation
Text:KHSE 222251Z AUTO 05005KT 10SM CLR 21/08 A3025 RMK AO2 SLP244 T02110083
Temperature: 21.1°C ( 70°F)
Dewpoint: 8.3°C ( 47°F) [RH = 44%]
Pressure (altimeter):30.25 inches Hg (1024.5 mb) [Sea level pressure: 1024.4 mb]
Winds:from the NE (50 degrees) at 6 MPH (5 knots; 2.6 m/s)
Visibility:10 or more sm (16+ km)
Ceiling:at least 12,000 feet AGL
Clouds:sky clear below 12,000 feet AGL
QC Flag:automated observation with no human augmentation
Text:KHSE 222151Z AUTO 04008KT 10SM CLR 23/08 A3026 RMK AO2 SLP246 T02280078
Temperature: 22.8°C ( 73°F)
Dewpoint: 7.8°C ( 46°F) [RH = 38%]
Pressure (altimeter):30.26 inches Hg (1024.8 mb) [Sea level pressure: 1024.6 mb]
Winds:from the NE (40 degrees) at 9 MPH (8 knots; 4.1 m/s)
Visibility:10 or more sm (16+ km)
Ceiling:at least 12,000 feet AGL
Clouds:sky clear below 12,000 feet AGL
QC Flag:automated observation with no human augmentation
Text:KHSE 222051Z AUTO 03007G14KT 10SM CLR 24/09 A3024 RMK AO2 SLP241 T02390094 53003
Temperature: 23.9°C ( 75°F)
Dewpoint: 9.4°C ( 49°F) [RH = 40%]
Pressure (altimeter):30.24 inches Hg (1024.1 mb) [Sea level pressure: 1024.1 mb]
Winds:from the NNE (30 degrees) at 8 MPH (7 knots; 3.6 m/s) gusting to 16 MPH (14 knots; 7.2 m/s)
Visibility:10 or more sm (16+ km)
Ceiling:at least 12,000 feet AGL
Clouds:sky clear below 12,000 feet AGL
QC Flag:automated observation with no human augmentation
Text:KHSE 221951Z AUTO 04008KT 010V070 10SM CLR 24/10 A3024 RMK AO2 SLP240 T02440100
Temperature: 24.4°C ( 76°F)
Dewpoint: 10.0°C ( 50°F) [RH = 40%]
Pressure (altimeter):30.24 inches Hg (1024.1 mb) [Sea level pressure: 1024.0 mb]
Winds:from the NE (40 degrees) at 9 MPH (8 knots; 4.1 m/s)
Visibility:10 or more sm (16+ km)
Ceiling:at least 12,000 feet AGL
Clouds:sky clear below 12,000 feet AGL
QC Flag:automated observation with no human augmentation
Text:KHSE 221851Z AUTO 04008G16KT 360V080 10SM CLR 25/12 A3024 RMK AO2 SLP238 T02500122
Temperature: 25.0°C ( 77°F)
Dewpoint: 12.2°C ( 54°F) [RH = 45%]
Pressure (altimeter):30.24 inches Hg (1024.1 mb) [Sea level pressure: 1023.8 mb]
Winds:from the NE (40 degrees) at 9 MPH (8 knots; 4.1 m/s) gusting to 18 MPH (16 knots; 8.2 m/s)
Visibility:10 or more sm (16+ km)
Ceiling:at least 12,000 feet AGL
Clouds:sky clear below 12,000 feet AGL
QC Flag:automated observation with no human augmentation
Text:KHSE 221751Z AUTO 06009G16KT 10SM CLR 24/13 A3024 RMK AO2 SLP238 T02440128 10250 20206 53006
Temperature: 24.4°C ( 76°F)
Dewpoint: 12.8°C ( 55°F) [RH = 48%]
Pressure (altimeter):30.24 inches Hg (1024.1 mb) [Sea level pressure: 1023.8 mb]
Winds:from the ENE (60 degrees) at 10 MPH (9 knots; 4.6 m/s) gusting to 18 MPH (16 knots; 8.2 m/s)
Visibility:10 or more sm (16+ km)
Ceiling:at least 12,000 feet AGL
Clouds:sky clear below 12,000 feet AGL
QC Flag:automated observation with no human augmentation
Text:KHSE 221651Z AUTO 05009G17KT 10SM CLR 25/13 A3022 RMK AO2 SLP234 T02500133
Temperature: 25.0°C ( 77°F)
Dewpoint: 13.3°C ( 56°F) [RH = 48%]
Pressure (altimeter):30.22 inches Hg (1023.5 mb) [Sea level pressure: 1023.4 mb]
Winds:from the NE (50 degrees) at 10 MPH (9 knots; 4.6 m/s) gusting to 20 MPH (17 knots; 8.7 m/s)
Visibility:10 or more sm (16+ km)
Ceiling:at least 12,000 feet AGL
Clouds:sky clear below 12,000 feet AGL
QC Flag:automated observation with no human augmentation
Text:KHSE 221551Z AUTO 04009G17KT 10SM CLR 24/14 A3023 RMK AO2 SLP235 T02390139
Temperature: 23.9°C ( 75°F)
Dewpoint: 13.9°C ( 57°F) [RH = 54%]
Pressure (altimeter):30.23 inches Hg (1023.8 mb) [Sea level pressure: 1023.5 mb]
Winds:from the NE (40 degrees) at 10 MPH (9 knots; 4.6 m/s) gusting to 20 MPH (17 knots; 8.7 m/s)
Visibility:10 or more sm (16+ km)
Ceiling:at least 12,000 feet AGL
Clouds:sky clear below 12,000 feet AGL
QC Flag:automated observation with no human augmentation
Text:KHSE 221451Z AUTO 05011G18KT 10SM CLR 23/13 A3022 RMK AO2 SLP232 T02330128 51015
Temperature: 23.3°C ( 74°F)
Dewpoint: 12.8°C ( 55°F) [RH = 52%]
Pressure (altimeter):30.22 inches Hg (1023.5 mb) [Sea level pressure: 1023.2 mb]
Winds:from the NE (50 degrees) at 13 MPH (11 knots; 5.7 m/s) gusting to 21 MPH (18 knots; 9.3 m/s)
Visibility:10 or more sm (16+ km)
Ceiling:at least 12,000 feet AGL
Clouds:sky clear below 12,000 feet AGL
QC Flag:automated observation with no human augmentation
Text:KHSE 221351Z AUTO 05008G15KT 360V090 10SM CLR 23/12 A3021 RMK AO2 SLP229 T02280122
Temperature: 22.8°C ( 73°F)
Dewpoint: 12.2°C ( 54°F) [RH = 51%]
Pressure (altimeter):30.21 inches Hg (1023.1 mb) [Sea level pressure: 1022.9 mb]
Winds:from the NE (50 degrees) at 9 MPH (8 knots; 4.1 m/s) gusting to 17 MPH (15 knots; 7.7 m/s)
Visibility:10 or more sm (16+ km)
Ceiling:at least 12,000 feet AGL
Clouds:sky clear below 12,000 feet AGL
QC Flag:automated observation with no human augmentation